sensor_id;sensor_type;location;lat;lon;timestamp;P1;durP1;ratioP1;P2;durP2;ratioP2
37477;SDS011;23334;54.316;10.182;2023-11-21T00:00:22;11.87;;;3.47;;
37477;SDS011;23334;54.316;10.182;2023-11-21T00:02:48;12.10;;;3.70;;
37477;SDS011;23334;54.316;10.182;2023-11-21T00:05:14;12.33;;;4.07;;
37477;SDS011;23334;54.316;10.182;2023-11-21T00:07:41;11.27;;;3.77;;
37477;SDS011;23334;54.316;10.182;2023-11-21T00:10:09;9.83;;;3.77;;
37477;SDS011;23334;54.316;10.182;2023-11-21T00:12:36;12.13;;;4.00;;
37477;SDS011;23334;54.316;10.182;2023-11-21T00:15:03;22.37;;;5.40;;
37477;SDS011;23334;54.316;10.182;2023-11-21T00:17:36;27.37;;;4.80;;
37477;SDS011;23334;54.316;10.182;2023-11-21T00:20:02;19.33;;;4.73;;
37477;SDS011;23334;54.316;10.182;2023-11-21T00:22:33;11.23;;;4.17;;
37477;SDS011;23334;54.316;10.182;2023-11-21T00:24:59;20.83;;;4.73;;
37477;SDS011;23334;54.316;10.182;2023-11-21T00:27:26;19.87;;;5.13;;
37477;SDS011;23334;54.316;10.182;2023-11-21T00:29:52;15.63;;;4.70;;
37477;SDS011;23334;54.316;10.182;2023-11-21T00:32:19;10.93;;;4.20;;
37477;SDS011;23334;54.316;10.182;2023-11-21T00:34:45;16.77;;;4.77;;
37477;SDS011;23334;54.316;10.182;2023-11-21T00:37:11;14.70;;;4.87;;
37477;SDS011;23334;54.316;10.182;2023-11-21T00:39:37;13.80;;;5.00;;
37477;SDS011;23334;54.316;10.182;2023-11-21T00:42:03;15.57;;;5.00;;
37477;SDS011;23334;54.316;10.182;2023-11-21T00:44:29;15.57;;;5.90;;
37477;SDS011;23334;54.316;10.182;2023-11-21T00:46:55;13.10;;;4.63;;
37477;SDS011;23334;54.316;10.182;2023-11-21T00:49:21;11.33;;;4.20;;
37477;SDS011;23334;54.316;10.182;2023-11-21T00:51:47;19.87;;;4.97;;
37477;SDS011;23334;54.316;10.182;2023-11-21T00:54:13;20.73;;;4.87;;
37477;SDS011;23334;54.316;10.182;2023-11-21T00:56:41;11.77;;;4.47;;
37477;SDS011;23334;54.316;10.182;2023-11-21T00:59:08;15.00;;;4.67;;
37477;SDS011;23334;54.316;10.182;2023-11-21T01:01:35;14.97;;;4.63;;
37477;SDS011;23334;54.316;10.182;2023-11-21T01:04:03;15.53;;;5.30;;
37477;SDS011;23334;54.316;10.182;2023-11-21T01:06:29;18.80;;;5.20;;
37477;SDS011;23334;54.316;10.182;2023-11-21T01:08:55;18.47;;;5.50;;
37477;SDS011;23334;54.316;10.182;2023-11-21T01:11:20;26.57;;;5.20;;
37477;SDS011;23334;54.316;10.182;2023-11-21T01:13:46;16.90;;;5.13;;
37477;SDS011;23334;54.316;10.182;2023-11-21T01:16:12;14.03;;;4.93;;
37477;SDS011;23334;54.316;10.182;2023-11-21T01:18:38;19.20;;;5.90;;
37477;SDS011;23334;54.316;10.182;2023-11-21T01:21:04;12.23;;;4.83;;
37477;SDS011;23334;54.316;10.182;2023-11-21T01:23:30;19.83;;;4.80;;
37477;SDS011;23334;54.316;10.182;2023-11-21T01:25:57;18.83;;;4.97;;
37477;SDS011;23334;54.316;10.182;2023-11-21T01:28:23;13.07;;;4.80;;
37477;SDS011;23334;54.316;10.182;2023-11-21T01:30:49;17.37;;;5.10;;
37477;SDS011;23334;54.316;10.182;2023-11-21T01:33:15;18.13;;;5.27;;
37477;SDS011;23334;54.316;10.182;2023-11-21T01:35:41;13.03;;;5.00;;
37477;SDS011;23334;54.316;10.182;2023-11-21T01:38:07;29.23;;;5.60;;
37477;SDS011;23334;54.316;10.182;2023-11-21T01:40:34;45.60;;;6.23;;
37477;SDS011;23334;54.316;10.182;2023-11-21T01:43:00;24.93;;;5.70;;
37477;SDS011;23334;54.316;10.182;2023-11-21T01:45:28;16.00;;;4.93;;
37477;SDS011;23334;54.316;10.182;2023-11-21T01:47:55;21.13;;;5.07;;
37477;SDS011;23334;54.316;10.182;2023-11-21T01:50:23;20.67;;;6.00;;
37477;SDS011;23334;54.316;10.182;2023-11-21T01:52:50;29.20;;;5.80;;
37477;SDS011;23334;54.316;10.182;2023-11-21T01:55:16;21.30;;;5.23;;
37477;SDS011;23334;54.316;10.182;2023-11-21T01:57:48;27.50;;;6.23;;
37477;SDS011;23334;54.316;10.182;2023-11-21T02:00:14;20.77;;;5.50;;
37477;SDS011;23334;54.316;10.182;2023-11-21T02:02:47;25.10;;;5.33;;
37477;SDS011;23334;54.316;10.182;2023-11-21T02:05:17;28.90;;;5.33;;
37477;SDS011;23334;54.316;10.182;2023-11-21T02:07:43;25.60;;;5.50;;
37477;SDS011;23334;54.316;10.182;2023-11-21T02:10:15;23.20;;;5.63;;
37477;SDS011;23334;54.316;10.182;2023-11-21T02:12:41;21.00;;;5.07;;
37477;SDS011;23334;54.316;10.182;2023-11-21T02:15:08;23.73;;;5.73;;
37477;SDS011;23334;54.316;10.182;2023-11-21T02:17:46;30.20;;;5.90;;
37477;SDS011;23334;54.316;10.182;2023-11-21T02:20:15;14.97;;;4.60;;
37477;SDS011;23334;54.316;10.182;2023-11-21T02:22:42;19.17;;;5.03;;
37477;SDS011;23334;54.316;10.182;2023-11-21T02:25:10;19.70;;;5.40;;
37477;SDS011;23334;54.316;10.182;2023-11-21T02:27:36;37.07;;;6.73;;
37477;SDS011;23334;54.316;10.182;2023-11-21T02:30:02;14.27;;;4.90;;
37477;SDS011;23334;54.316;10.182;2023-11-21T02:32:29;29.83;;;5.40;;
37477;SDS011;23334;54.316;10.182;2023-11-21T02:34:56;23.03;;;5.50;;
37477;SDS011;23334;54.316;10.182;2023-11-21T02:37:25;17.63;;;4.70;;
37477;SDS011;23334;54.316;10.182;2023-11-21T02:39:51;27.27;;;5.47;;
37477;SDS011;23334;54.316;10.182;2023-11-21T02:42:17;14.73;;;5.03;;
37477;SDS011;23334;54.316;10.182;2023-11-21T02:44:43;28.20;;;5.80;;
37477;SDS011;23334;54.316;10.182;2023-11-21T02:47:09;25.23;;;5.50;;
37477;SDS011;23334;54.316;10.182;2023-11-21T02:49:35;19.23;;;5.10;;
37477;SDS011;23334;54.316;10.182;2023-11-21T02:52:01;24.23;;;5.00;;
37477;SDS011;23334;54.316;10.182;2023-11-21T02:54:28;25.90;;;5.30;;
37477;SDS011;23334;54.316;10.182;2023-11-21T02:56:54;27.00;;;5.90;;
37477;SDS011;23334;54.316;10.182;2023-11-21T02:59:20;29.80;;;6.00;;
37477;SDS011;23334;54.316;10.182;2023-11-21T03:01:47;19.50;;;5.10;;
37477;SDS011;23334;54.316;10.182;2023-11-21T03:04:14;16.50;;;4.43;;
37477;SDS011;23334;54.316;10.182;2023-11-21T03:06:42;19.03;;;5.13;;
37477;SDS011;23334;54.316;10.182;2023-11-21T03:09:09;24.37;;;5.27;;
37477;SDS011;23334;54.316;10.182;2023-11-21T03:11:35;28.07;;;5.73;;
37477;SDS011;23334;54.316;10.182;2023-11-21T03:14:00;23.33;;;5.40;;
37477;SDS011;23334;54.316;10.182;2023-11-21T03:16:26;25.53;;;5.30;;
37477;SDS011;23334;54.316;10.182;2023-11-21T03:18:52;26.90;;;5.40;;
37477;SDS011;23334;54.316;10.182;2023-11-21T03:21:18;22.30;;;4.60;;
37477;SDS011;23334;54.316;10.182;2023-11-21T03:23:44;14.57;;;4.87;;
37477;SDS011;23334;54.316;10.182;2023-11-21T03:26:13;26.03;;;5.00;;
37477;SDS011;23334;54.316;10.182;2023-11-21T03:28:39;31.03;;;5.80;;
37477;SDS011;23334;54.316;10.182;2023-11-21T03:31:05;21.27;;;4.97;;
37477;SDS011;23334;54.316;10.182;2023-11-21T03:33:31;17.53;;;4.80;;
37477;SDS011;23334;54.316;10.182;2023-11-21T03:35:58;15.70;;;4.80;;
37477;SDS011;23334;54.316;10.182;2023-11-21T03:38:25;19.47;;;5.40;;
37477;SDS011;23334;54.316;10.182;2023-11-21T03:40:51;32.17;;;5.27;;
37477;SDS011;23334;54.316;10.182;2023-11-21T03:43:18;15.73;;;4.63;;
37477;SDS011;23334;54.316;10.182;2023-11-21T03:45:44;24.83;;;5.57;;
37477;SDS011;23334;54.316;10.182;2023-11-21T03:48:11;20.87;;;5.20;;
37477;SDS011;23334;54.316;10.182;2023-11-21T03:50:37;15.70;;;5.17;;
37477;SDS011;23334;54.316;10.182;2023-11-21T03:53:03;26.80;;;5.10;;
37477;SDS011;23334;54.316;10.182;2023-11-21T03:55:29;19.17;;;5.30;;
37477;SDS011;23334;54.316;10.182;2023-11-21T03:57:57;19.73;;;5.47;;
37477;SDS011;23334;54.316;10.182;2023-11-21T04:00:24;14.63;;;4.70;;
37477;SDS011;23334;54.316;10.182;2023-11-21T04:02:51;15.10;;;4.80;;
37477;SDS011;23334;54.316;10.182;2023-11-21T04:05:17;19.63;;;4.60;;
37477;SDS011;23334;54.316;10.182;2023-11-21T04:07:43;26.00;;;5.27;;
37477;SDS011;23334;54.316;10.182;2023-11-21T04:10:09;21.13;;;4.40;;
37477;SDS011;23334;54.316;10.182;2023-11-21T04:12:37;34.93;;;4.53;;
37477;SDS011;23334;54.316;10.182;2023-11-21T04:15:03;16.97;;;3.60;;
37477;SDS011;23334;54.316;10.182;2023-11-21T04:17:29;24.53;;;3.60;;
37477;SDS011;23334;54.316;10.182;2023-11-21T04:19:55;25.67;;;3.53;;
37477;SDS011;23334;54.316;10.182;2023-11-21T04:22:21;20.93;;;3.57;;
37477;SDS011;23334;54.316;10.182;2023-11-21T04:24:48;31.27;;;3.77;;
37477;SDS011;23334;54.316;10.182;2023-11-21T04:27:16;12.50;;;2.37;;
37477;SDS011;23334;54.316;10.182;2023-11-21T04:29:45;17.97;;;3.30;;
37477;SDS011;23334;54.316;10.182;2023-11-21T04:32:11;15.23;;;2.80;;
37477;SDS011;23334;54.316;10.182;2023-11-21T04:34:37;22.60;;;3.40;;
37477;SDS011;23334;54.316;10.182;2023-11-21T04:37:03;34.80;;;3.67;;
37477;SDS011;23334;54.316;10.182;2023-11-21T04:39:31;19.43;;;3.33;;
37477;SDS011;23334;54.316;10.182;2023-11-21T04:41:56;24.60;;;3.20;;
37477;SDS011;23334;54.316;10.182;2023-11-21T04:44:24;23.43;;;2.73;;
37477;SDS011;23334;54.316;10.182;2023-11-21T04:46:50;15.33;;;3.20;;
37477;SDS011;23334;54.316;10.182;2023-11-21T04:49:16;21.37;;;3.07;;
37477;SDS011;23334;54.316;10.182;2023-11-21T04:51:41;13.00;;;3.00;;
37477;SDS011;23334;54.316;10.182;2023-11-21T04:54:07;24.17;;;3.30;;
37477;SDS011;23334;54.316;10.182;2023-11-21T04:56:34;19.13;;;2.70;;
37477;SDS011;23334;54.316;10.182;2023-11-21T04:59:00;14.03;;;2.47;;
37477;SDS011;23334;54.316;10.182;2023-11-21T05:01:25;23.77;;;3.20;;
37477;SDS011;23334;54.316;10.182;2023-11-21T05:03:52;59.33;;;5.90;;
37477;SDS011;23334;54.316;10.182;2023-11-21T05:06:18;16.17;;;2.97;;
37477;SDS011;23334;54.316;10.182;2023-11-21T05:08:44;15.47;;;2.90;;
37477;SDS011;23334;54.316;10.182;2023-11-21T05:11:10;17.30;;;3.30;;
37477;SDS011;23334;54.316;10.182;2023-11-21T05:13:36;21.10;;;2.97;;
37477;SDS011;23334;54.316;10.182;2023-11-21T05:16:04;15.70;;;3.30;;
37477;SDS011;23334;54.316;10.182;2023-11-21T05:18:32;16.33;;;2.90;;
37477;SDS011;23334;54.316;10.182;2023-11-21T05:20:59;19.93;;;3.03;;
37477;SDS011;23334;54.316;10.182;2023-11-21T05:23:26;13.33;;;2.67;;
37477;SDS011;23334;54.316;10.182;2023-11-21T05:25:52;11.07;;;2.60;;
37477;SDS011;23334;54.316;10.182;2023-11-21T05:28:17;19.23;;;3.03;;
37477;SDS011;23334;54.316;10.182;2023-11-21T05:30:45;24.37;;;3.20;;
37477;SDS011;23334;54.316;10.182;2023-11-21T05:33:11;7.93;;;2.50;;
37477;SDS011;23334;54.316;10.182;2023-11-21T05:35:37;9.90;;;2.60;;
37477;SDS011;23334;54.316;10.182;2023-11-21T05:38:03;24.47;;;3.57;;
37477;SDS011;23334;54.316;10.182;2023-11-21T05:40:30;23.37;;;3.20;;
37477;SDS011;23334;54.316;10.182;2023-11-21T05:42:56;9.30;;;2.30;;
37477;SDS011;23334;54.316;10.182;2023-11-21T05:45:22;9.37;;;2.40;;
37477;SDS011;23334;54.316;10.182;2023-11-21T05:47:48;8.93;;;2.60;;
37477;SDS011;23334;54.316;10.182;2023-11-21T05:50:15;12.97;;;3.20;;
37477;SDS011;23334;54.316;10.182;2023-11-21T05:52:45;21.40;;;3.90;;
37477;SDS011;23334;54.316;10.182;2023-11-21T05:55:12;14.33;;;3.43;;
37477;SDS011;23334;54.316;10.182;2023-11-21T05:57:38;34.23;;;4.53;;
37477;SDS011;23334;54.316;10.182;2023-11-21T06:00:05;27.87;;;4.13;;
37477;SDS011;23334;54.316;10.182;2023-11-21T06:02:43;13.20;;;3.03;;
37477;SDS011;23334;54.316;10.182;2023-11-21T06:05:10;18.80;;;4.10;;
37477;SDS011;23334;54.316;10.182;2023-11-21T06:07:36;30.73;;;4.93;;
37477;SDS011;23334;54.316;10.182;2023-11-21T06:10:03;28.23;;;4.40;;
37477;SDS011;23334;54.316;10.182;2023-11-21T06:12:37;19.30;;;3.83;;
37477;SDS011;23334;54.316;10.182;2023-11-21T06:15:05;20.63;;;4.17;;
37477;SDS011;23334;54.316;10.182;2023-11-21T06:17:33;27.87;;;4.40;;
37477;SDS011;23334;54.316;10.182;2023-11-21T06:20:03;21.03;;;4.13;;
37477;SDS011;23334;54.316;10.182;2023-11-21T06:22:34;30.10;;;5.17;;
37477;SDS011;23334;54.316;10.182;2023-11-21T06:25:00;23.30;;;4.57;;
37477;SDS011;23334;54.316;10.182;2023-11-21T06:27:27;59.07;;;6.37;;
37477;SDS011;23334;54.316;10.182;2023-11-21T06:29:54;26.70;;;4.53;;
37477;SDS011;23334;54.316;10.182;2023-11-21T06:32:20;16.30;;;4.00;;
37477;SDS011;23334;54.316;10.182;2023-11-21T06:34:47;11.93;;;3.70;;
37477;SDS011;23334;54.316;10.182;2023-11-21T06:37:14;15.17;;;3.77;;
37477;SDS011;23334;54.316;10.182;2023-11-21T06:39:40;31.87;;;4.73;;
37477;SDS011;23334;54.316;10.182;2023-11-21T06:42:06;23.70;;;4.37;;
37477;SDS011;23334;54.316;10.182;2023-11-21T06:44:32;11.27;;;3.30;;
37477;SDS011;23334;54.316;10.182;2023-11-21T06:46:58;20.10;;;3.60;;
37477;SDS011;23334;54.316;10.182;2023-11-21T06:49:24;17.33;;;4.10;;
37477;SDS011;23334;54.316;10.182;2023-11-21T06:51:51;12.43;;;3.40;;
37477;SDS011;23334;54.316;10.182;2023-11-21T06:54:18;11.97;;;3.83;;
37477;SDS011;23334;54.316;10.182;2023-11-21T06:56:45;20.27;;;3.83;;
37477;SDS011;23334;54.316;10.182;2023-11-21T06:59:12;19.67;;;4.00;;
37477;SDS011;23334;54.316;10.182;2023-11-21T07:01:38;23.40;;;4.20;;
37477;SDS011;23334;54.316;10.182;2023-11-21T07:04:07;23.20;;;4.30;;
37477;SDS011;23334;54.316;10.182;2023-11-21T07:06:34;20.00;;;4.00;;
37477;SDS011;23334;54.316;10.182;2023-11-21T07:09:00;14.73;;;3.67;;
37477;SDS011;23334;54.316;10.182;2023-11-21T07:11:28;27.90;;;5.00;;
37477;SDS011;23334;54.316;10.182;2023-11-21T07:13:54;39.70;;;5.53;;
37477;SDS011;23334;54.316;10.182;2023-11-21T07:16:20;19.73;;;4.43;;
37477;SDS011;23334;54.316;10.182;2023-11-21T07:18:47;13.43;;;3.90;;
37477;SDS011;23334;54.316;10.182;2023-11-21T07:21:14;17.83;;;3.83;;
37477;SDS011;23334;54.316;10.182;2023-11-21T07:23:40;14.13;;;4.20;;
37477;SDS011;23334;54.316;10.182;2023-11-21T07:26:06;21.83;;;3.80;;
37477;SDS011;23334;54.316;10.182;2023-11-21T07:28:35;14.27;;;3.70;;
37477;SDS011;23334;54.316;10.182;2023-11-21T07:31:01;22.97;;;4.90;;
37477;SDS011;23334;54.316;10.182;2023-11-21T07:33:28;21.60;;;4.97;;
37477;SDS011;23334;54.316;10.182;2023-11-21T07:35:54;17.40;;;4.50;;
37477;SDS011;23334;54.316;10.182;2023-11-21T07:38:20;11.37;;;3.93;;
37477;SDS011;23334;54.316;10.182;2023-11-21T07:40:45;14.93;;;4.77;;
37477;SDS011;23334;54.316;10.182;2023-11-21T07:43:11;18.17;;;4.23;;
37477;SDS011;23334;54.316;10.182;2023-11-21T07:45:37;17.00;;;4.67;;
37477;SDS011;23334;54.316;10.182;2023-11-21T07:48:03;13.60;;;4.17;;
37477;SDS011;23334;54.316;10.182;2023-11-21T07:50:30;16.80;;;4.20;;
37477;SDS011;23334;54.316;10.182;2023-11-21T07:52:56;16.00;;;4.53;;
37477;SDS011;23334;54.316;10.182;2023-11-21T07:55:23;28.97;;;4.77;;
37477;SDS011;23334;54.316;10.182;2023-11-21T07:57:50;23.57;;;4.60;;
37477;SDS011;23334;54.316;10.182;2023-11-21T08:00:15;20.90;;;4.67;;
37477;SDS011;23334;54.316;10.182;2023-11-21T08:02:41;18.60;;;4.07;;
37477;SDS011;23334;54.316;10.182;2023-11-21T08:05:08;17.80;;;4.10;;
37477;SDS011;23334;54.316;10.182;2023-11-21T08:07:35;36.57;;;5.30;;
37477;SDS011;23334;54.316;10.182;2023-11-21T08:10:01;35.07;;;5.23;;
37477;SDS011;23334;54.316;10.182;2023-11-21T08:12:27;10.97;;;3.57;;
37477;SDS011;23334;54.316;10.182;2023-11-21T08:14:54;11.10;;;3.37;;
37477;SDS011;23334;54.316;10.182;2023-11-21T08:17:20;13.60;;;3.80;;
37477;SDS011;23334;54.316;10.182;2023-11-21T08:19:46;17.73;;;3.90;;
37477;SDS011;23334;54.316;10.182;2023-11-21T08:22:17;15.23;;;4.10;;
37477;SDS011;23334;54.316;10.182;2023-11-21T08:24:43;15.17;;;3.97;;
37477;SDS011;23334;54.316;10.182;2023-11-21T08:27:11;19.53;;;4.23;;
37477;SDS011;23334;54.316;10.182;2023-11-21T08:29:40;11.47;;;3.67;;
37477;SDS011;23334;54.316;10.182;2023-11-21T08:32:06;16.23;;;3.70;;
37477;SDS011;23334;54.316;10.182;2023-11-21T08:34:32;26.93;;;4.50;;
37477;SDS011;23334;54.316;10.182;2023-11-21T08:36:58;18.43;;;3.80;;
37477;SDS011;23334;54.316;10.182;2023-11-21T08:39:25;15.40;;;4.13;;
37477;SDS011;23334;54.316;10.182;2023-11-21T08:41:52;37.87;;;5.37;;
37477;SDS011;23334;54.316;10.182;2023-11-21T08:44:18;9.10;;;3.23;;
37477;SDS011;23334;54.316;10.182;2023-11-21T08:46:44;19.57;;;4.33;;
37477;SDS011;23334;54.316;10.182;2023-11-21T08:49:11;24.17;;;4.53;;
37477;SDS011;23334;54.316;10.182;2023-11-21T08:51:38;9.27;;;3.00;;
37477;SDS011;23334;54.316;10.182;2023-11-21T08:54:04;14.00;;;3.57;;
37477;SDS011;23334;54.316;10.182;2023-11-21T08:56:33;13.10;;;3.80;;
37477;SDS011;23334;54.316;10.182;2023-11-21T08:58:59;31.07;;;4.87;;
37477;SDS011;23334;54.316;10.182;2023-11-21T09:01:28;8.93;;;3.53;;
37477;SDS011;23334;54.316;10.182;2023-11-21T09:03:56;21.53;;;4.30;;
37477;SDS011;23334;54.316;10.182;2023-11-21T09:06:23;11.73;;;3.90;;
37477;SDS011;23334;54.316;10.182;2023-11-21T09:08:49;8.97;;;2.90;;
37477;SDS011;23334;54.316;10.182;2023-11-21T09:11:15;12.73;;;3.40;;
37477;SDS011;23334;54.316;10.182;2023-11-21T09:13:42;12.27;;;3.70;;
37477;SDS011;23334;54.316;10.182;2023-11-21T09:16:09;22.30;;;3.90;;
37477;SDS011;23334;54.316;10.182;2023-11-21T09:18:37;14.47;;;3.17;;
37477;SDS011;23334;54.316;10.182;2023-11-21T09:21:02;11.57;;;3.13;;
37477;SDS011;23334;54.316;10.182;2023-11-21T09:23:29;16.50;;;3.67;;
37477;SDS011;23334;54.316;10.182;2023-11-21T09:25:56;17.93;;;3.33;;
37477;SDS011;23334;54.316;10.182;2023-11-21T09:28:25;11.47;;;3.20;;
37477;SDS011;23334;54.316;10.182;2023-11-21T09:30:53;22.60;;;3.73;;
37477;SDS011;23334;54.316;10.182;2023-11-21T09:33:19;18.50;;;3.80;;
37477;SDS011;23334;54.316;10.182;2023-11-21T09:35:47;23.47;;;3.73;;
37477;SDS011;23334;54.316;10.182;2023-11-21T09:38:14;12.90;;;2.80;;
37477;SDS011;23334;54.316;10.182;2023-11-21T09:40:43;31.13;;;4.27;;
37477;SDS011;23334;54.316;10.182;2023-11-21T09:43:12;10.07;;;2.80;;
37477;SDS011;23334;54.316;10.182;2023-11-21T09:45:45;18.87;;;3.40;;
37477;SDS011;23334;54.316;10.182;2023-11-21T09:48:12;13.13;;;2.80;;
37477;SDS011;23334;54.316;10.182;2023-11-21T09:50:39;23.07;;;4.23;;
37477;SDS011;23334;54.316;10.182;2023-11-21T09:53:13;12.87;;;3.10;;
37477;SDS011;23334;54.316;10.182;2023-11-21T09:55:44;18.40;;;3.47;;
37477;SDS011;23334;54.316;10.182;2023-11-21T09:58:11;13.60;;;3.10;;
37477;SDS011;23334;54.316;10.182;2023-11-21T10:00:39;24.87;;;3.73;;
37477;SDS011;23334;54.316;10.182;2023-11-21T10:03:05;14.70;;;3.10;;
37477;SDS011;23334;54.316;10.182;2023-11-21T10:05:31;29.13;;;4.17;;
37477;SDS011;23334;54.316;10.182;2023-11-21T10:07:59;15.73;;;3.03;;
37477;SDS011;23334;54.316;10.182;2023-11-21T10:10:26;15.00;;;3.30;;
37477;SDS011;23334;54.316;10.182;2023-11-21T10:12:55;10.57;;;2.83;;
37477;SDS011;23334;54.316;10.182;2023-11-21T10:15:22;26.13;;;4.17;;
37477;SDS011;23334;54.316;10.182;2023-11-21T10:17:49;22.30;;;4.07;;
37477;SDS011;23334;54.316;10.182;2023-11-21T10:20:18;9.23;;;3.27;;
37477;SDS011;23334;54.316;10.182;2023-11-21T10:22:44;13.90;;;2.73;;
37477;SDS011;23334;54.316;10.182;2023-11-21T10:25:11;13.27;;;2.70;;
37477;SDS011;23334;54.316;10.182;2023-11-21T10:27:39;23.00;;;4.00;;
37477;SDS011;23334;54.316;10.182;2023-11-21T10:30:07;11.50;;;2.70;;
37477;SDS011;23334;54.316;10.182;2023-11-21T10:32:38;18.43;;;3.00;;
37477;SDS011;23334;54.316;10.182;2023-11-21T10:35:05;11.80;;;3.10;;
37477;SDS011;23334;54.316;10.182;2023-11-21T10:37:39;27.07;;;3.80;;
37477;SDS011;23334;54.316;10.182;2023-11-21T10:40:09;8.73;;;2.50;;
37477;SDS011;23334;54.316;10.182;2023-11-21T10:42:37;19.53;;;3.70;;
37477;SDS011;23334;54.316;10.182;2023-11-21T10:45:04;22.30;;;3.37;;
37477;SDS011;23334;54.316;10.182;2023-11-21T10:47:36;24.23;;;3.80;;
37477;SDS011;23334;54.316;10.182;2023-11-21T10:50:03;14.47;;;2.77;;
37477;SDS011;23334;54.316;10.182;2023-11-21T10:52:29;14.17;;;3.00;;
37477;SDS011;23334;54.316;10.182;2023-11-21T10:54:55;11.60;;;2.70;;
37477;SDS011;23334;54.316;10.182;2023-11-21T10:57:24;23.87;;;3.47;;
37477;SDS011;23334;54.316;10.182;2023-11-21T10:59:50;13.47;;;2.63;;
37477;SDS011;23334;54.316;10.182;2023-11-21T11:02:22;20.63;;;3.47;;
37477;SDS011;23334;54.316;10.182;2023-11-21T11:04:50;19.67;;;3.27;;
37477;SDS011;23334;54.316;10.182;2023-11-21T11:07:18;6.27;;;1.97;;
37477;SDS011;23334;54.316;10.182;2023-11-21T11:09:47;9.57;;;2.30;;
37477;SDS011;23334;54.316;10.182;2023-11-21T11:12:12;11.37;;;2.67;;
37477;SDS011;23334;54.316;10.182;2023-11-21T11:14:42;11.97;;;2.60;;
37477;SDS011;23334;54.316;10.182;2023-11-21T11:17:10;14.37;;;2.80;;
37477;SDS011;23334;54.316;10.182;2023-11-21T11:19:36;14.27;;;2.70;;
37477;SDS011;23334;54.316;10.182;2023-11-21T11:22:26;12.20;;;2.70;;
37477;SDS011;23334;54.316;10.182;2023-11-21T11:28:14;14.57;;;2.53;;
37477;SDS011;23334;54.316;10.182;2023-11-21T11:30:45;10.00;;;2.50;;
37477;SDS011;23334;54.316;10.182;2023-11-21T11:33:33;9.13;;;2.80;;
37477;SDS011;23334;54.316;10.182;2023-11-21T11:36:47;14.90;;;3.27;;
37477;SDS011;23334;54.316;10.182;2023-11-21T11:38:54;18.50;;;3.30;;
37477;SDS011;23334;54.316;10.182;2023-11-21T11:41:25;12.70;;;2.63;;
37477;SDS011;23334;54.316;10.182;2023-11-21T11:43:52;15.47;;;2.77;;
37477;SDS011;23334;54.316;10.182;2023-11-21T11:46:18;17.97;;;3.67;;
37477;SDS011;23334;54.316;10.182;2023-11-21T11:48:46;58.10;;;6.53;;
37477;SDS011;23334;54.316;10.182;2023-11-21T11:51:14;15.43;;;2.90;;
37477;SDS011;23334;54.316;10.182;2023-11-21T11:53:42;33.27;;;4.50;;
37477;SDS011;23334;54.316;10.182;2023-11-21T11:56:22;13.77;;;3.73;;
37477;SDS011;23334;54.316;10.182;2023-11-21T11:58:55;7.77;;;2.60;;
37477;SDS011;23334;54.316;10.182;2023-11-21T12:01:22;16.80;;;3.37;;
37477;SDS011;23334;54.316;10.182;2023-11-21T12:06:35;14.80;;;3.50;;
37477;SDS011;23334;54.316;10.182;2023-11-21T12:09:02;13.60;;;3.30;;
37477;SDS011;23334;54.316;10.182;2023-11-21T12:11:31;16.80;;;3.97;;
37477;SDS011;23334;54.316;10.182;2023-11-21T12:13:58;12.70;;;3.53;;
37477;SDS011;23334;54.316;10.182;2023-11-21T12:16:25;38.13;;;4.90;;
37477;SDS011;23334;54.316;10.182;2023-11-21T12:18:54;24.93;;;3.90;;
37477;SDS011;23334;54.316;10.182;2023-11-21T12:21:22;23.93;;;3.80;;
37477;SDS011;23334;54.316;10.182;2023-11-21T12:23:47;30.20;;;3.90;;
37477;SDS011;23334;54.316;10.182;2023-11-21T12:26:13;17.03;;;3.33;;
37477;SDS011;23334;54.316;10.182;2023-11-21T12:28:39;36.33;;;4.70;;
37477;SDS011;23334;54.316;10.182;2023-11-21T12:31:05;13.97;;;3.20;;
37477;SDS011;23334;54.316;10.182;2023-11-21T12:33:34;24.93;;;3.97;;
37477;SDS011;23334;54.316;10.182;2023-11-21T12:36:00;15.23;;;2.83;;
37477;SDS011;23334;54.316;10.182;2023-11-21T12:38:33;10.47;;;3.00;;
37477;SDS011;23334;54.316;10.182;2023-11-21T12:41:00;21.33;;;4.17;;
37477;SDS011;23334;54.316;10.182;2023-11-21T12:43:26;10.30;;;2.80;;
37477;SDS011;23334;54.316;10.182;2023-11-21T12:46:04;12.93;;;2.97;;
37477;SDS011;23334;54.316;10.182;2023-11-21T12:48:30;10.53;;;2.80;;
37477;SDS011;23334;54.316;10.182;2023-11-21T12:50:57;14.47;;;3.47;;
37477;SDS011;23334;54.316;10.182;2023-11-21T12:53:25;12.47;;;2.40;;
37477;SDS011;23334;54.316;10.182;2023-11-21T12:55:51;9.67;;;2.57;;
37477;SDS011;23334;54.316;10.182;2023-11-21T12:58:17;16.87;;;2.40;;
37477;SDS011;23334;54.316;10.182;2023-11-21T13:00:46;9.93;;;2.67;;
37477;SDS011;23334;54.316;10.182;2023-11-21T13:03:13;18.97;;;3.00;;
37477;SDS011;23334;54.316;10.182;2023-11-21T13:05:44;9.90;;;2.40;;
37477;SDS011;23334;54.316;10.182;2023-11-21T13:08:12;7.43;;;1.90;;
37477;SDS011;23334;54.316;10.182;2023-11-21T13:10:39;10.10;;;2.20;;
37477;SDS011;23334;54.316;10.182;2023-11-21T13:13:06;6.33;;;1.93;;
37477;SDS011;23334;54.316;10.182;2023-11-21T13:15:46;16.80;;;2.80;;
37477;SDS011;23334;54.316;10.182;2023-11-21T13:18:12;16.37;;;2.93;;
37477;SDS011;23334;54.316;10.182;2023-11-21T13:20:39;23.77;;;5.87;;
37477;SDS011;23334;54.316;10.182;2023-11-21T13:23:07;24.53;;;5.93;;
37477;SDS011;23334;54.316;10.182;2023-11-21T13:25:33;15.13;;;3.67;;
37477;SDS011;23334;54.316;10.182;2023-11-21T13:27:59;14.00;;;3.97;;
37477;SDS011;23334;54.316;10.182;2023-11-21T13:30:25;10.43;;;3.50;;
37477;SDS011;23334;54.316;10.182;2023-11-21T13:32:53;11.17;;;3.60;;
37477;SDS011;23334;54.316;10.182;2023-11-21T13:35:22;27.13;;;5.63;;
37477;SDS011;23334;54.316;10.182;2023-11-21T13:38:06;25.67;;;4.93;;
37477;SDS011;23334;54.316;10.182;2023-11-21T13:40:36;52.50;;;6.27;;
37477;SDS011;23334;54.316;10.182;2023-11-21T13:43:08;27.83;;;6.30;;
37477;SDS011;23334;54.316;10.182;2023-11-21T13:45:36;15.57;;;4.57;;
37477;SDS011;23334;54.316;10.182;2023-11-21T13:48:04;9.83;;;3.00;;
37477;SDS011;23334;54.316;10.182;2023-11-21T13:50:38;10.13;;;2.50;;
37477;SDS011;23334;54.316;10.182;2023-11-21T13:53:09;16.27;;;2.67;;
37477;SDS011;23334;54.316;10.182;2023-11-21T13:55:43;26.67;;;4.50;;
37477;SDS011;23334;54.316;10.182;2023-11-21T13:58:10;12.83;;;4.47;;
37477;SDS011;23334;54.316;10.182;2023-11-21T14:00:42;21.00;;;4.93;;
37477;SDS011;23334;54.316;10.182;2023-11-21T14:03:17;16.07;;;4.00;;
37477;SDS011;23334;54.316;10.182;2023-11-21T14:05:47;15.60;;;3.13;;
37477;SDS011;23334;54.316;10.182;2023-11-21T14:08:19;15.27;;;3.90;;
37477;SDS011;23334;54.316;10.182;2023-11-21T14:10:49;16.93;;;4.33;;
37477;SDS011;23334;54.316;10.182;2023-11-21T14:13:18;22.73;;;6.90;;
37477;SDS011;23334;54.316;10.182;2023-11-21T14:15:44;22.07;;;6.03;;
37477;SDS011;23334;54.316;10.182;2023-11-21T14:18:15;22.80;;;4.43;;
37477;SDS011;23334;54.316;10.182;2023-11-21T14:20:42;35.83;;;5.07;;
37477;SDS011;23334;54.316;10.182;2023-11-21T14:23:08;44.70;;;5.33;;
37477;SDS011;23334;54.316;10.182;2023-11-21T14:25:35;21.57;;;3.80;;
37477;SDS011;23334;54.316;10.182;2023-11-21T14:28:04;16.97;;;3.30;;
37477;SDS011;23334;54.316;10.182;2023-11-21T14:30:36;15.40;;;2.90;;